Portknockie, United Kingdom
Current Conditions -  °F | °C
As of 7:50 PM on Thursday 29 Jan 2015 (Local Time) from EGQS Reporting Station
Clear Clear  
Wind Chill: -5°   Ceiling: Unl
Heat Index:   Visibility: 6mi
Dew Point: -2°   Wind: 13mph
Humidity: 87%   Direction: 260°W
Pressure: 28.67"   Gusts: NA
Location:  57.7°N, 2.86°W
Report Text: EGQS 291950Z 26011KT CAVOK 00/M02 Q0971 BLU
Loading
Personal Weather Stations






























Interactive Weather Map New forecast layout! Learn more

10-Day Weather Forecast

Advertisements
Track Severe Weather on mobile